createdAt,value
2019-03-16T00:04:02.525Z,72.93
2019-03-16T00:08:10.662Z,72.58
2019-03-16T00:12:18.346Z,72.69
2019-03-16T00:16:25.960Z,72.32
2019-03-16T00:20:34.162Z,72.66
2019-03-16T00:24:41.718Z,72.65
2019-03-16T00:28:49.897Z,72.95
2019-03-16T00:32:57.913Z,72.97
2019-03-16T00:37:05.524Z,72.57
2019-03-16T00:41:13.739Z,72.19
2019-03-16T00:45:21.434Z,73.15
2019-03-16T00:49:29.286Z,72.96
2019-03-16T00:53:37.365Z,72.67
2019-03-16T00:57:45.684Z,73.09
2019-03-16T01:01:53.488Z,73.85
2019-03-16T01:06:01.830Z,74.04
2019-03-16T01:10:10.450Z,73.75
2019-03-16T01:14:18.251Z,73.19
2019-03-16T01:18:26.274Z,72.80
2019-03-16T01:22:34.177Z,73.29
2019-03-16T01:26:41.802Z,72.74
2019-03-16T01:30:49.911Z,73.51
2019-03-16T01:34:57.504Z,73.39
2019-03-16T01:39:07.588Z,73.32
2019-03-16T01:43:16.195Z,73.86
2019-03-16T01:47:23.741Z,72.53
2019-03-16T01:51:31.835Z,72.88
2019-03-16T01:55:40.044Z,73.92
2019-03-16T01:59:47.743Z,73.60
2019-03-16T02:03:55.761Z,72.99
2019-03-16T02:08:03.913Z,74.11
2019-03-16T02:12:11.585Z,73.59
2019-03-16T02:16:20.014Z,74.61
2019-03-16T02:20:28.148Z,73.93
2019-03-16T02:24:35.666Z,74.15
2019-03-16T02:28:44.272Z,73.28
2019-03-16T02:32:51.871Z,74.75
2019-03-16T02:36:59.661Z,74.00
2019-03-16T02:41:08.134Z,73.50
2019-03-16T02:45:15.803Z,72.84
2019-03-16T02:49:24.047Z,73.45
2019-03-16T02:53:31.878Z,73.35
2019-03-16T02:57:39.528Z,72.71
2019-03-16T03:01:47.368Z,73.73
2019-03-16T03:05:55.260Z,72.72
2019-03-16T03:10:02.878Z,73.09
2019-03-16T03:14:11.424Z,74.51
2019-03-16T03:18:19.616Z,74.20
2019-03-16T03:22:27.329Z,73.15
2019-03-16T03:26:35.614Z,72.80
2019-03-16T03:30:43.346Z,73.27
2019-03-16T03:34:50.913Z,73.07
2019-03-16T03:38:58.966Z,73.35
2019-03-16T03:43:06.791Z,73.55
2019-03-16T03:47:14.506Z,72.80
2019-03-16T03:51:22.832Z,73.25
2019-03-16T03:55:31.141Z,74.12
2019-03-16T03:59:39.454Z,73.44
2019-03-16T04:03:47.877Z,72.22
2019-03-16T04:07:55.398Z,72.73
2019-03-16T04:12:03.353Z,72.90
2019-03-16T04:16:11.226Z,73.01
2019-03-16T04:20:18.899Z,72.88
2019-03-16T04:24:26.988Z,73.03
2019-03-16T04:28:35.142Z,72.60
2019-03-16T04:32:42.967Z,73.70
2019-03-16T04:36:51.093Z,73.76
2019-03-16T04:40:59.305Z,72.98
2019-03-16T04:45:07.181Z,73.38
2019-03-16T04:49:15.528Z,73.41
2019-03-16T04:53:23.356Z,73.14
2019-03-16T04:57:30.959Z,72.39
2019-03-16T05:01:38.866Z,72.13
2019-03-16T05:05:46.659Z,71.14
2019-03-16T05:09:54.481Z,70.89
2019-03-16T05:14:02.401Z,70.60
2019-03-16T05:18:10.106Z,71.01
2019-03-16T05:22:18.219Z,71.43
2019-03-16T05:26:26.054Z,71.26
2019-03-16T05:30:34.256Z,70.49
2019-03-16T05:34:55.562Z,69.72
2019-03-16T05:38:51.826Z,68.99
2019-03-16T05:42:59.532Z,68.36
2019-03-16T05:47:07.654Z,68.50
2019-03-16T05:51:15.349Z,66.14
2019-03-16T05:55:22.970Z,63.10
2019-03-16T05:59:30.671Z,61.44
2019-03-16T06:03:38.378Z,59.45
2019-03-16T06:07:46.587Z,59.84
2019-03-16T06:11:54.719Z,55.31
2019-03-16T06:16:02.316Z,54.34
2019-03-16T06:20:11.053Z,54.51
2019-03-16T06:24:18.955Z,53.76
2019-03-16T06:28:26.664Z,53.57
2019-03-16T06:32:34.888Z,53.11
2019-03-16T06:36:42.816Z,51.39
2019-03-16T06:40:50.618Z,51.19
2019-03-16T06:44:58.414Z,51.59
2019-03-16T06:49:06.142Z,52.79
2019-03-16T06:53:14.455Z,52.51
2019-03-16T06:57:22.586Z,53.00
2019-03-16T07:01:30.219Z,51.19
2019-03-16T07:05:39.032Z,50.96
2019-03-16T07:09:46.913Z,50.50
2019-03-16T07:13:54.618Z,51.12
2019-03-16T07:18:02.839Z,52.59
2019-03-16T07:22:11.056Z,46.87
2019-03-16T07:26:18.998Z,48.32
2019-03-16T07:30:27.301Z,48.62
2019-03-16T07:34:35.012Z,48.40
2019-03-16T07:38:43.023Z,47.68
2019-03-16T07:42:51.147Z,47.98
2019-03-16T07:46:58.861Z,46.88
2019-03-16T07:51:07.169Z,48.32
2019-03-16T07:55:15.085Z,45.37
2019-03-16T07:59:23.397Z,42.43
2019-03-16T08:03:31.548Z,42.50
2019-03-16T08:07:39.325Z,41.27
2019-03-16T08:11:47.452Z,42.26
2019-03-16T08:15:55.759Z,41.09
2019-03-16T08:20:03.320Z,40.67
2019-03-16T08:24:11.497Z,41.46
2019-03-16T08:28:19.117Z,40.86
2019-03-16T08:32:26.723Z,40.58
2019-03-16T08:36:34.930Z,40.80
2019-03-16T08:40:42.634Z,40.34
2019-03-16T08:44:50.320Z,40.21
2019-03-16T08:48:58.546Z,38.94
2019-03-16T08:53:06.362Z,39.17
2019-03-16T08:57:14.376Z,39.55
2019-03-16T09:01:21.993Z,39.01
2019-03-16T09:05:30.829Z,38.70
2019-03-16T09:09:39.131Z,40.18
2019-03-16T09:13:46.756Z,39.30
2019-03-16T09:17:54.982Z,37.41
2019-03-16T09:22:03.079Z,37.77
2019-03-16T09:26:10.784Z,39.01
2019-03-16T09:30:19.016Z,39.25
2019-03-16T09:34:26.926Z,37.84
2019-03-16T09:38:34.543Z,38.95
2019-03-16T09:42:43.677Z,38.37
2019-03-16T09:46:51.288Z,37.94
2019-03-16T09:50:59.102Z,36.84
2019-03-16T09:55:07.432Z,36.58
2019-03-16T09:59:15.021Z,35.85
2019-03-16T10:03:23.125Z,35.78
2019-03-16T10:07:30.945Z,36.36
2019-03-16T10:11:38.433Z,36.05
2019-03-16T10:15:46.554Z,34.74
2019-03-16T10:19:54.567Z,34.64
2019-03-16T10:24:02.285Z,34.39
2019-03-16T10:28:10.100Z,33.36
2019-03-16T10:32:18.001Z,33.93
2019-03-16T10:36:25.727Z,33.98
2019-03-16T10:40:33.928Z,34.20
2019-03-16T10:44:44.483Z,34.64
2019-03-16T10:48:52.729Z,33.77
2019-03-16T10:53:00.444Z,33.52
2019-03-16T10:57:08.632Z,33.83
2019-03-16T11:01:17.589Z,33.08
2019-03-16T11:05:25.413Z,33.24
2019-03-16T11:09:33.298Z,32.89
2019-03-16T11:13:41.442Z,33.72
2019-03-16T11:17:49.133Z,34.08
2019-03-16T11:21:57.662Z,34.20
2019-03-16T11:26:05.488Z,33.83
2019-03-16T11:30:13.573Z,34.24
2019-03-16T11:34:21.342Z,34.26
2019-03-16T11:38:28.992Z,34.55
2019-03-16T11:42:38.965Z,33.75
2019-03-16T11:46:47.092Z,34.24
2019-03-16T11:50:54.700Z,33.86
2019-03-16T11:55:02.520Z,33.58
2019-03-16T11:59:20.997Z,34.19
2019-03-16T12:03:19.567Z,34.38
2019-03-16T12:07:27.870Z,34.35
2019-03-16T12:11:35.768Z,34.05
2019-03-16T12:15:43.915Z,34.41
2019-03-16T12:19:51.624Z,34.36
2019-03-16T12:23:59.318Z,34.30
2019-03-16T12:28:07.545Z,34.91
2019-03-16T12:32:15.152Z,34.65
2019-03-16T12:36:22.879Z,34.71
2019-03-16T12:40:30.806Z,34.58
2019-03-16T12:44:38.383Z,34.10
2019-03-16T12:48:46.600Z,34.88
2019-03-16T12:52:54.911Z,34.99
2019-03-16T12:57:02.621Z,35.74
2019-03-16T13:01:12.672Z,36.54
2019-03-16T13:05:21.010Z,36.36
2019-03-16T13:09:29.025Z,36.09
2019-03-16T13:13:36.730Z,36.94
2019-03-16T13:17:44.452Z,36.36
2019-03-16T13:21:52.639Z,36.45
2019-03-16T13:26:00.458Z,37.08
2019-03-16T13:30:09.315Z,37.71
2019-03-16T13:34:17.413Z,37.55
2019-03-16T13:38:25.034Z,37.65
2019-03-16T13:42:33.032Z,37.64
2019-03-16T13:46:40.942Z,38.37
2019-03-16T13:50:48.695Z,37.94
2019-03-16T13:54:56.771Z,38.25
2019-03-16T13:59:04.900Z,38.29
2019-03-16T14:03:12.805Z,38.68
2019-03-16T14:07:20.524Z,39.40
2019-03-16T14:11:28.128Z,39.24
2019-03-16T14:15:35.827Z,39.58
2019-03-16T14:19:44.045Z,39.26
2019-03-16T14:23:52.276Z,39.35
2019-03-16T14:27:59.969Z,39.34
2019-03-16T14:32:08.914Z,39.73
2019-03-16T14:36:17.276Z,40.00
2019-03-16T14:40:25.146Z,39.84
2019-03-16T14:44:33.254Z,39.64
2019-03-16T14:48:41.064Z,39.47
2019-03-16T14:52:49.809Z,39.65
2019-03-16T14:56:57.509Z,39.44
2019-03-16T15:01:05.563Z,39.34
2019-03-16T15:05:13.599Z,39.78
2019-03-16T15:09:21.856Z,40.75
2019-03-16T15:13:29.548Z,41.47
2019-03-16T15:17:37.478Z,41.60
2019-03-16T15:21:45.722Z,41.45
2019-03-16T15:25:53.419Z,41.43
2019-03-16T15:30:01.320Z,41.61
2019-03-16T15:34:09.845Z,41.69
2019-03-16T15:38:17.551Z,41.98
2019-03-16T15:42:25.877Z,42.20
2019-03-16T15:46:34.096Z,42.13
2019-03-16T15:50:41.718Z,42.35
2019-03-16T15:54:49.825Z,41.77
2019-03-16T15:58:57.645Z,41.88
2019-03-16T16:03:05.444Z,41.69
2019-03-16T16:07:13.192Z,41.81
2019-03-16T16:11:20.866Z,41.89
2019-03-16T16:15:29.279Z,42.09
2019-03-16T16:19:37.088Z,42.06
2019-03-16T16:23:47.998Z,42.03
2019-03-16T16:27:54.673Z,41.99
2019-03-16T16:32:02.896Z,41.93
2019-03-16T16:36:10.805Z,42.09
2019-03-16T16:40:19.023Z,42.03
2019-03-16T16:44:26.696Z,42.02
2019-03-16T16:48:34.935Z,41.93
2019-03-16T16:52:43.356Z,41.90
2019-03-16T16:56:51.172Z,41.85
2019-03-16T17:00:59.494Z,41.71
2019-03-16T17:05:07.926Z,41.76
2019-03-16T17:09:15.617Z,41.88
2019-03-16T17:13:23.527Z,42.09
2019-03-16T17:17:35.528Z,41.98
2019-03-16T17:21:40.391Z,42.15
2019-03-16T17:25:48.520Z,42.11
2019-03-16T17:29:55.908Z,42.20
2019-03-16T17:34:04.122Z,42.52
2019-03-16T17:38:12.346Z,42.76
2019-03-16T17:42:20.046Z,43.13
2019-03-16T17:46:27.979Z,43.55
2019-03-16T17:50:35.857Z,43.83
2019-03-16T17:54:43.581Z,44.11
2019-03-16T17:58:51.288Z,44.51
2019-03-16T18:02:58.999Z,44.52
2019-03-16T18:07:07.120Z,44.67
2019-03-16T18:11:15.021Z,44.97
2019-03-16T18:15:22.766Z,45.21
2019-03-16T18:19:30.435Z,45.48
2019-03-16T18:23:39.430Z,45.53
2019-03-16T18:27:47.380Z,45.73
2019-03-16T18:32:07.213Z,45.64
2019-03-16T18:36:05.777Z,45.66
2019-03-16T18:40:13.914Z,45.53
2019-03-16T18:44:22.137Z,45.56
2019-03-16T18:48:30.515Z,45.53
2019-03-16T18:52:38.576Z,46.03
2019-03-16T18:56:46.976Z,45.96
2019-03-16T19:00:54.681Z,45.98
2019-03-16T19:05:03.422Z,46.04
2019-03-16T19:09:11.230Z,40.90
2019-03-16T19:13:19.238Z,39.70
2019-03-16T19:17:27.374Z,41.78
2019-03-16T19:21:35.076Z,39.76
2019-03-16T19:25:43.195Z,40.21
2019-03-16T19:29:51.003Z,39.56
2019-03-16T19:33:58.705Z,39.99
2019-03-16T19:38:06.600Z,39.87
2019-03-16T19:42:14.305Z,41.08
2019-03-16T19:46:22.555Z,40.30
2019-03-16T19:50:30.463Z,40.93
2019-03-16T19:54:38.168Z,41.87
2019-03-16T19:59:00.087Z,42.71
2019-03-16T20:02:58.782Z,41.46
2019-03-16T20:07:18.490Z,41.21
2019-03-16T20:11:16.251Z,42.25
2019-03-16T20:15:24.557Z,42.22
2019-03-16T20:19:32.189Z,41.93
2019-03-16T20:23:40.708Z,42.71
2019-03-16T20:27:49.025Z,43.35
2019-03-16T20:31:56.647Z,43.51
2019-03-16T20:36:04.389Z,43.85
2019-03-16T20:40:12.172Z,44.09
2019-03-16T20:44:20.366Z,44.37
2019-03-16T20:48:28.289Z,44.98
2019-03-16T20:52:36.004Z,45.36
2019-03-16T20:56:43.777Z,45.24
2019-03-16T21:00:52.129Z,45.32
2019-03-16T21:04:59.838Z,44.80
2019-03-16T21:09:08.875Z,44.90
2019-03-16T21:13:16.879Z,45.59
2019-03-16T21:17:24.593Z,45.02
2019-03-16T21:21:32.824Z,44.62
2019-03-16T21:25:40.942Z,43.69
2019-03-16T21:29:48.759Z,44.01
2019-03-16T21:33:56.868Z,44.00
2019-03-16T21:38:04.559Z,43.91
2019-03-16T21:42:12.173Z,44.34
2019-03-16T21:46:20.413Z,44.21
2019-03-16T21:50:28.201Z,45.59
2019-03-16T21:54:36.001Z,44.32
2019-03-16T21:58:44.324Z,44.39
2019-03-16T22:02:53.075Z,45.14
2019-03-16T22:07:01.281Z,45.40
2019-03-16T22:11:09.410Z,44.78
2019-03-16T22:15:17.149Z,46.03
2019-03-16T22:19:25.331Z,45.53
2019-03-16T22:23:33.630Z,45.97
2019-03-16T22:27:41.353Z,46.74
2019-03-16T22:31:49.518Z,47.27
2019-03-16T22:35:57.397Z,47.30
2019-03-16T22:40:05.119Z,47.26
2019-03-16T22:44:13.213Z,47.68
2019-03-16T22:48:21.370Z,48.82
2019-03-16T22:52:28.941Z,48.57
2019-03-16T22:56:37.148Z,48.78
2019-03-16T23:00:46.634Z,48.54
2019-03-16T23:04:54.504Z,50.05
2019-03-16T23:09:03.113Z,50.04
2019-03-16T23:13:11.041Z,49.56
2019-03-16T23:17:18.987Z,50.09
2019-03-16T23:21:27.187Z,50.44
2019-03-16T23:25:34.988Z,52.14
2019-03-16T23:29:46.210Z,51.59
2019-03-16T23:33:55.215Z,50.30
2019-03-16T23:38:02.934Z,50.84
2019-03-16T23:42:11.072Z,51.06
2019-03-16T23:46:19.246Z,51.58
2019-03-16T23:50:27.070Z,52.25
2019-03-16T23:54:35.312Z,54.67
2019-03-16T23:58:43.507Z,52.65
